Time;durP1;ratioP1;P1;durP2;ratioP2;P2;SDS_P1;SDS_P2;PMS_P1;PMS_P2;Temp;Humidity;BMP_temperature;BMP_pressure;BME280_temperature;BME280_humidity;BME280_pressure;Samples;Min_cycle;Max_cycle;Signal;HPM_P1;HPM_P2
2022/06/21 00:02:25;;;;;;;1.23;0.30;;;;;;;19.86;56.03;96706.41;9958019;29;20070;-53
2022/06/21 00:07:44;;;;;;;0.30;0.30;;;;;;;19.85;55.93;96708.28;9935539;29;20062;-53
2022/06/21 00:13:10;;;;;;;2.17;0.40;;;;;;;19.84;55.80;96706.72;9953877;29;20060;-53
2022/06/21 00:18:31;;;;;;;0.30;0.30;;;;;;;19.83;55.52;96705.13;9946983;29;20085;-53
2022/06/21 00:23:53;;;;;;;0.30;0.30;;;;;;;19.83;55.56;96705.13;9956673;29;20054;-52
2022/06/21 00:29:12;;;;;;;0.30;0.30;;;;;;;19.83;55.37;96710.53;9942131;29;20062;-53
2022/06/21 00:34:32;;;;;;;0.65;0.40;;;;;;;19.82;55.44;96708.97;9949876;29;20066;-52
2022/06/21 00:39:51;;;;;;;0.30;0.30;;;;;;;19.84;55.26;96719.47;9939747;29;20100;-52
2022/06/21 00:45:16;;;;;;;0.65;0.30;;;;;;;19.81;55.16;96706.59;9960308;29;20058;-50
2022/06/21 00:50:39;;;;;;;0.45;0.30;;;;;;;19.80;55.26;96707.69;9956158;29;20066;-52
2022/06/21 00:56:17;;;;;;;0.40;0.40;;;;;;;19.81;55.13;96715.47;9937234;29;20421;-53
2022/06/21 01:01:36;;;;;;;0.40;0.40;;;;;;;19.81;55.08;96707.38;9940769;29;20502;-53
2022/06/21 01:06:58;;;;;;;1.27;0.40;;;;;;;19.80;54.98;96718.50;9954496;29;20582;-50
2022/06/21 01:12:24;;;;;;;0.30;0.30;;;;;;;19.81;54.81;96718.19;9968171;29;20074;-53
2022/06/21 01:17:44;;;;;;;1.55;0.50;;;;;;;19.78;54.86;96713.44;9936965;29;20046;-53
2022/06/21 01:23:41;;;;;;;0.30;0.30;;;;;;;19.78;54.74;96710.75;9949740;29;20055;-53
2022/06/21 01:29:02;;;;;;;0.35;0.35;;;;;;;19.78;54.79;96707.22;9940440;29;20073;-52
2022/06/21 01:34:25;;;;;;;0.30;0.30;;;;;;;19.79;54.79;96709.63;9938577;29;20054;-53
2022/06/21 01:40:06;;;;;;;1.40;0.55;;;;;;;19.78;54.66;96723.44;9934512;29;20070;-50
2022/06/21 01:45:29;;;;;;;0.40;0.40;;;;;;;19.78;54.59;96718.03;9938565;29;20051;-52
2022/06/21 01:50:50;;;;;;;1.58;0.45;;;;;;;19.76;54.49;96721.09;9927999;29;20062;-50
2022/06/21 01:56:13;;;;;;;0.43;0.40;;;;;;;19.78;54.42;96718.03;9923983;29;20051;-52
2022/06/21 02:01:42;;;;;;;1.23;0.50;;;;;;;19.76;54.37;96715.69;9925551;29;20063;-50
2022/06/21 02:07:03;;;;;;;;;;;;;;;19.75;54.17;96709.47;9947088;29;20111;-53
2022/06/21 02:12:23;;;;;;;0.70;0.50;;;;;;;19.74;54.15;96713.31;9923930;29;20457;-52
2022/06/21 02:17:43;;;;;;;1.30;0.43;;;;;;;19.73;54.19;96717.13;9920087;29;20420;-50
2022/06/21 02:23:04;;;;;;;0.80;0.47;;;;;;;19.74;53.97;96712.53;9920205;29;20153;-53
2022/06/21 02:28:28;;;;;;;0.40;0.40;;;;;;;19.73;54.04;96711.72;9923069;29;20147;-50
2022/06/21 02:33:48;;;;;;;1.20;0.30;;;;;;;19.73;54.01;96710.94;9944918;29;20074;-53
2022/06/21 02:39:14;;;;;;;0.40;0.40;;;;;;;19.72;53.89;96712.06;9938325;29;20383;-53
2022/06/21 02:44:40;;;;;;;0.50;0.50;;;;;;;19.73;53.78;96714.41;9925143;29;20067;-53
2022/06/21 02:50:06;;;;;;;0.57;0.50;;;;;;;19.71;53.71;96697.72;9921332;29;20119;-53
2022/06/21 02:55:50;;;;;;;0.65;0.45;;;;;;;19.70;53.46;96706.94;9938833;29;20685;-53
2022/06/21 03:01:22;;;;;;;1.30;0.52;;;;;;;19.71;53.62;96713.13;9962624;29;20445;-53
2022/06/21 03:06:42;;;;;;;0.73;0.57;;;;;;;19.70;53.49;96716.97;9947110;29;20063;-52
2022/06/21 03:12:03;;;;;;;0.85;0.40;;;;;;;19.70;53.35;96722.38;9940021;29;20063;-53
2022/06/21 03:17:30;;;;;;;0.40;0.40;;;;;;;19.70;53.27;96731.28;9931029;29;20051;-53
2022/06/21 03:22:51;;;;;;;0.82;0.50;;;;;;;19.70;53.16;96730.47;9945620;29;20380;-53
2022/06/21 03:28:27;;;;;;;0.63;0.40;;;;;;;19.68;53.08;96720.00;9939225;29;20062;-52
2022/06/21 03:33:53;;;;;;;0.73;0.50;;;;;;;19.69;53.08;96732.38;9929628;29;20515;-52
2022/06/21 03:39:18;;;;;;;0.73;0.70;;;;;;;19.68;53.07;96725.41;9952101;29;20062;-53
2022/06/21 03:44:43;;;;;;;0.60;0.60;;;;;;;19.69;52.88;96726.19;9930487;29;20519;-52
2022/06/21 03:50:09;;;;;;;0.70;0.68;;;;;;;19.67;52.81;96723.81;9919822;29;20065;-53
2022/06/21 03:55:34;;;;;;;1.02;0.57;;;;;;;19.68;52.90;96738.09;9956397;29;20090;-53
2022/06/21 04:01:10;;;;;;;1.35;0.50;;;;;;;19.67;52.70;96737.31;9942492;29;20074;-53
2022/06/21 04:06:59;;;;;;;0.88;0.70;;;;;;;19.69;52.52;96737.00;9955548;29;20080;-52
2022/06/21 04:12:28;;;;;;;2.20;0.60;;;;;;;19.69;52.37;96740.47;9933717;29;20083;-53
2022/06/21 04:18:20;;;;;;;1.50;0.50;;;;;;;19.69;52.13;96734.28;9921910;29;20058;-52
2022/06/21 04:23:56;;;;;;;0.77;0.60;;;;;;;19.69;52.01;96743.19;9941788;29;20055;-50
2022/06/21 04:29:32;;;;;;;0.82;0.65;;;;;;;19.72;50.45;96736.38;9944830;29;20058;-53
2022/06/21 04:35:00;;;;;;;3.42;1.00;;;;;;;19.59;47.03;96738.16;9946962;29;20204;-50
2022/06/21 04:40:29;;;;;;;1.45;0.90;;;;;;;19.25;46.43;96756.09;9920682;29;20077;-53
2022/06/21 04:45:51;;;;;;;1.55;0.95;;;;;;;19.05;46.41;96757.59;9924569;29;20513;-53
2022/06/21 04:51:22;;;;;;;1.50;1.00;;;;;;;19.00;46.62;96756.97;9918394;29;20552;-52
2022/06/21 04:56:50;;;;;;;2.88;1.05;;;;;;;18.87;46.28;96746.00;9918876;29;20566;-52
2022/06/21 05:02:17;;;;;;;2.58;1.05;;;;;;;18.83;46.51;96755.09;9941309;29;20055;-51
2022/06/21 05:07:42;;;;;;;2.85;1.45;;;;;;;18.77;46.36;96763.31;9929863;29;20427;-52
2022/06/21 05:13:05;;;;;;;1.92;1.00;;;;;;;18.72;46.62;96763.50;9936595;29;20063;-53
2022/06/21 05:18:30;;;;;;;1.10;0.95;;;;;;;18.69;46.90;96761.41;9957809;29;20107;-51
2022/06/21 05:23:50;;;;;;;3.22;0.93;;;;;;;18.88;47.36;96753.00;9938747;29;20066;-52
2022/06/21 05:29:29;;;;;;;2.47;0.80;;;;;;;19.06;48.01;96758.38;9935271;29;20059;-52
2022/06/21 05:34:52;;;;;;;1.35;1.10;;;;;;;19.15;48.70;96759.94;9904075;29;20089;-51
2022/06/21 05:40:31;;;;;;;0.93;0.80;;;;;;;19.22;49.35;96766.75;9937138;29;20063;-52
2022/06/21 05:45:56;;;;;;;1.88;0.82;;;;;;;19.27;49.51;96758.47;9925530;29;20100;-53
2022/06/21 05:51:28;;;;;;;2.00;1.00;;;;;;;19.30;49.97;96768.63;9945815;29;20062;-52
2022/06/21 05:56:49;;;;;;;0.95;0.73;;;;;;;19.31;50.07;96767.53;9944141;29;20545;-51
2022/06/21 06:02:22;;;;;;;1.75;0.85;;;;;;;19.34;50.30;96774.97;9937234;29;20066;-52
2022/06/21 06:07:46;;;;;;;1.45;0.90;;;;;;;19.36;50.63;96783.53;9927494;29;20047;-53
2022/06/21 06:13:10;;;;;;;0.70;0.70;;;;;;;19.36;50.84;96781.63;9944182;29;20129;-52
2022/06/21 06:18:40;;;;;;;0.68;0.68;;;;;;;19.39;51.04;96788.31;9929347;29;20054;-53
2022/06/21 06:24:04;;;;;;;0.90;0.68;;;;;;;19.38;51.14;96786.72;9925400;29;20164;-52
2022/06/21 06:29:31;;;;;;;2.50;0.95;;;;;;;19.39;50.51;96793.72;9925715;29;20070;-50
2022/06/21 06:34:52;;;;;;;2.95;0.98;;;;;;;19.39;50.05;96782.13;9933123;29;20086;-51
2022/06/21 06:40:19;;;;;;;2.58;1.40;;;;;;;19.34;50.04;96791.97;9918525;29;20075;-53
2022/06/21 06:45:40;;;;;;;3.28;1.17;;;;;;;19.36;50.49;96789.72;9914868;29;20055;-51
2022/06/21 06:51:15;;;;;;;1.98;1.00;;;;;;;19.40;50.70;96786.38;9924927;29;20067;-50
2022/06/21 06:56:47;;;;;;;1.30;1.02;;;;;;;19.40;50.82;96789.88;9950594;29;20071;-53
2022/06/21 07:02:18;;;;;;;2.35;1.10;;;;;;;19.42;51.08;96794.97;9921228;29;20758;-52
2022/06/21 07:07:45;;;;;;;4.28;1.30;;;;;;;19.39;50.42;96799.13;9926126;29;20470;-52
2022/06/21 07:13:05;;;;;;;1.42;1.17;;;;;;;19.39;50.43;96792.94;9924048;29;20066;-51
2022/06/21 07:18:32;;;;;;;2.47;0.98;;;;;;;19.40;51.06;96789.88;9922426;29;20058;-51
2022/06/21 07:23:53;;;;;;;2.10;1.10;;;;;;;19.42;51.38;96793.03;9942417;29;20099;-52
2022/06/21 07:29:37;;;;;;;4.28;1.33;;;;;;;19.43;51.72;96788.47;9955244;29;20086;-50
2022/06/21 07:35:03;;;;;;;3.50;1.30;;;;;;;19.44;51.86;96800.84;9975467;29;20051;-52
2022/06/21 07:40:34;;;;;;;7.93;2.67;;;;;;;19.43;51.26;96794.66;9961896;29;20069;-50
2022/06/21 07:46:00;;;;;;;8.05;2.45;;;;;;;19.43;51.54;96791.94;9980673;29;20118;-52
2022/06/21 07:51:32;;;;;;;8.48;2.00;;;;;;;19.43;51.84;96794.66;9967618;29;20731;-51
2022/06/21 07:57:04;;;;;;;8.68;2.63;;;;;;;19.45;52.26;96802.44;9965695;29;20067;-51
2022/06/21 08:08:16;;;;;;;13.57;4.05;;;;;;;19.45;52.71;96805.91;9931117;29;20062;-52
2022/06/21 08:13:36;;;;;;;14.50;3.78;;;;;;;19.46;52.66;96809.41;9941667;29;20059;-52
2022/06/21 08:19:21;;;;;;;11.93;4.28;;;;;;;19.48;52.75;96824.19;9944839;29;20699;-51
2022/06/21 08:24:58;;;;;;;13.10;4.50;;;;;;;19.47;52.94;96819.13;9927724;29;20065;-52
2022/06/21 08:30:27;;;;;;;14.18;4.53;;;;;;;19.49;52.98;96823.06;9932208;29;20078;-52
2022/06/21 08:35:56;;;;;;;16.75;4.57;;;;;;;19.49;53.13;96835.78;9940143;29;20055;-52
2022/06/21 08:47:11;;;;;;;15.05;5.40;;;;;;;19.49;53.25;96836.59;9937347;29;20058;-50
2022/06/21 08:52:56;;;;;;;14.50;4.65;;;;;;;19.49;53.49;96835.78;9933285;29;20124;-52
2022/06/21 08:58:28;;;;;;;19.30;5.65;;;;;;;19.49;53.49;96836.59;9935994;29;20115;-50
2022/06/21 09:04:06;;;;;;;14.45;5.07;;;;;;;19.50;53.62;96840.06;9944710;29;20101;-52
2022/06/21 09:09:42;;;;;;;14.00;4.85;;;;;;;19.50;53.58;96830.06;9974448;29;20511;-52
2022/06/21 09:15:12;;;;;;;15.50;5.10;;;;;;;19.50;53.77;96830.06;9951759;29;20058;-50
2022/06/21 09:20:48;;;;;;;19.15;5.60;;;;;;;19.50;53.87;96840.88;9959418;29;20770;-51
2022/06/21 09:26:09;;;;;;;16.02;5.38;;;;;;;19.51;53.94;96834.34;9949556;29;20075;-52
2022/06/21 09:31:44;;;;;;;15.40;5.22;;;;;;;19.51;54.05;96834.34;9961972;29;20062;-52
2022/06/21 09:37:07;;;;;;;12.35;4.68;;;;;;;19.52;54.23;96838.66;9938471;29;20050;-52
2022/06/21 09:42:46;;;;;;;13.80;4.68;;;;;;;19.51;54.18;96838.97;9929440;29;20059;-52
2022/06/21 09:48:09;;;;;;;15.38;4.88;;;;;;;19.51;54.34;96818.13;9954225;29;20071;-51
2022/06/21 09:53:47;;;;;;;14.77;5.18;;;;;;;19.52;54.46;96835.13;9940143;29;20075;-50
2022/06/21 09:59:07;;;;;;;15.48;4.95;;;;;;;19.52;54.52;96822.44;9942046;29;20063;-52
2022/06/21 10:04:52;;;;;;;15.75;5.00;;;;;;;19.52;54.64;96830.53;9929318;29;20067;-52
2022/06/21 10:10:39;;;;;;;12.55;4.70;;;;;;;19.52;54.87;96838.66;9940687;29;20063;-52
2022/06/21 10:16:08;;;;;;;10.82;4.70;;;;;;;19.52;54.67;96841.34;9937082;29;20059;-52
2022/06/21 10:21:39;;;;;;;12.95;4.55;;;;;;;19.53;54.75;96847.53;9927866;29;20106;-52
2022/06/21 10:27:13;;;;;;;11.25;4.90;;;;;;;19.53;54.76;96834.81;9941172;29;20543;-52
2022/06/21 10:32:57;;;;;;;10.20;4.60;;;;;;;19.54;54.90;96832.91;9930862;29;20083;-52
2022/06/21 10:38:42;;;;;;;9.18;4.35;;;;;;;19.54;54.89;96841.00;9939503;29;20511;-52
2022/06/21 10:44:32;;;;;;;11.77;4.57;;;;;;;19.54;54.96;96843.72;9940816;29;20499;-52
2022/06/21 10:50:07;;;;;;;10.98;4.32;;;;;;;19.55;54.91;96835.28;9941160;29;20129;-52
2022/06/21 10:55:37;;;;;;;10.90;4.13;;;;;;;19.56;55.06;96841.47;9941226;29;20059;-52
2022/06/21 11:01:17;;;;;;;11.32;4.50;;;;;;;19.55;55.10;96837.19;9939363;29;20055;-52
2022/06/21 11:07:02;;;;;;;10.80;4.53;;;;;;;19.54;55.02;96836.41;9927290;29;20073;-52
2022/06/21 11:12:56;;;;;;;7.95;3.78;;;;;;;19.55;55.12;96835.28;9938360;29;20450;-52
2022/06/21 11:18:24;;;;;;;8.35;3.83;;;;;;;19.56;55.09;96826.06;9948153;29;20499;-52
2022/06/21 11:24:10;;;;;;;9.53;4.03;;;;;;;19.56;55.16;96820.66;9951105;29;20073;-52
2022/06/21 11:29:40;;;;;;;8.90;3.90;;;;;;;19.56;55.18;96820.66;9935520;29;20051;-50
2022/06/21 11:35:34;;;;;;;9.43;3.53;;;;;;;19.56;55.24;96807.16;9944233;29;20067;-52
2022/06/21 11:47:07;;;;;;;8.48;3.88;;;;;;;19.58;55.25;96803.31;9939501;29;20387;-51
2022/06/21 11:53:02;;;;;;;8.68;3.75;;;;;;;19.57;55.41;96797.13;9928548;29;20070;-52
2022/06/21 11:58:42;;;;;;;8.93;3.72;;;;;;;19.58;55.11;96774.38;9916826;29;20088;-51
2022/06/21 12:04:23;;;;;;;8.18;3.42;;;;;;;19.59;54.96;96780.59;9933623;29;20067;-51
2022/06/21 12:09:55;;;;;;;9.75;3.65;;;;;;;19.59;54.86;96780.59;9924983;29;20055;-50
2022/06/21 12:15:36;;;;;;;8.10;3.28;;;;;;;19.59;55.02;96775.19;9957878;29;20078;-52
2022/06/21 12:21:02;;;;;;;7.43;3.45;;;;;;;19.58;55.10;96755.47;9963581;29;20111;-50
2022/06/21 12:26:24;;;;;;;7.88;3.60;;;;;;;19.59;55.08;96745.47;9955754;29;20055;-52
2022/06/21 12:31:53;;;;;;;6.75;3.10;;;;;;;19.60;55.17;96749.75;9950499;29;20435;-52
2022/06/21 12:37:14;;;;;;;;;;;;;;;19.60;55.34;96745.16;9931124;29;20062;-50
2022/06/21 12:42:54;;;;;;;6.80;3.35;;;;;;;19.60;55.26;96747.84;9934934;29;20388;-52
2022/06/21 12:48:19;;;;;;;7.60;3.17;;;;;;;19.59;55.30;96727.34;9942988;29;20070;-52
2022/06/21 12:54:05;;;;;;;7.20;3.35;;;;;;;19.61;55.34;96716.22;9976589;29;20061;-52
2022/06/21 12:59:52;;;;;;;4.82;2.90;;;;;;;19.61;55.47;96717.00;9952146;29;20419;-52
2022/06/21 13:05:23;;;;;;;5.68;2.88;;;;;;;19.62;55.56;96704.28;9950455;29;20521;-52
2022/06/21 13:11:05;;;;;;;6.57;3.60;;;;;;;19.63;55.62;96700.47;9950593;29;20046;-52
2022/06/21 13:16:33;;;;;;;6.38;3.40;;;;;;;19.63;55.58;96697.75;9934105;29;20058;-52
2022/06/21 13:22:13;;;;;;;7.40;3.05;;;;;;;19.63;55.60;96693.16;9966755;29;20093;-52
2022/06/21 13:27:39;;;;;;;6.63;2.95;;;;;;;19.64;55.63;96704.75;9937235;29;20054;-52
2022/06/21 13:33:04;;;;;;;6.68;2.83;;;;;;;19.62;55.65;96705.09;9939033;29;20055;-52
2022/06/21 13:38:35;;;;;;;6.05;2.85;;;;;;;19.66;55.73;96705.19;9949989;29;20058;-52
2022/06/21 13:43:55;;;;;;;5.15;2.92;;;;;;;19.65;55.85;96709.81;9939305;29;20078;-52
2022/06/21 13:49:20;;;;;;;7.38;3.15;;;;;;;19.68;55.92;96705.66;9957960;29;20062;-52
2022/06/21 13:54:54;;;;;;;8.50;3.20;;;;;;;19.74;55.61;96704.41;9932825;29;20511;-51
2022/06/21 14:00:15;;;;;;;5.63;2.88;;;;;;;19.61;53.24;96706.19;9931254;29;20062;-51
2022/06/21 14:05:56;;;;;;;5.85;3.05;;;;;;;19.46;52.62;96702.13;9954161;29;20055;-52
2022/06/21 14:11:21;;;;;;;4.38;2.60;;;;;;;19.50;54.99;96696.88;9954248;29;20070;-52
2022/06/21 14:17:01;;;;;;;5.25;2.65;;;;;;;19.47;54.19;96687.50;9930657;29;20586;-51
2022/06/21 14:22:28;;;;;;;5.57;2.75;;;;;;;19.44;54.35;96673.84;9937798;29;20081;-52
2022/06/21 14:27:53;;;;;;;4.15;2.58;;;;;;;19.49;55.66;96663.66;9938028;29;20423;-51
2022/06/21 14:33:37;;;;;;;3.75;2.40;;;;;;;19.46;55.22;96663.53;9914337;29;20089;-51
2022/06/21 14:39:10;;;;;;;4.45;2.65;;;;;;;19.40;55.21;96665.59;9936214;29;20059;-52
2022/06/21 14:44:36;;;;;;;4.32;2.30;;;;;;;19.45;56.07;96643.81;9958951;29;20059;-52
2022/06/21 14:50:22;;;;;;;4.03;2.50;;;;;;;19.45;56.18;96654.63;9943248;29;20062;-51
2022/06/21 14:56:03;;;;;;;4.97;2.78;;;;;;;19.40;56.01;96635.91;9953400;29;20518;-49
2022/06/21 15:01:46;;;;;;;6.60;2.72;;;;;;;19.44;55.94;96642.22;9937312;29;20078;-52
2022/06/21 15:07:24;;;;;;;2.70;1.80;;;;;;;19.49;54.03;96638.56;9931263;29;20507;-50
2022/06/21 15:12:50;;;;;;;1.98;1.50;;;;;;;19.49;52.12;96638.56;9935900;29;20486;-52
2022/06/21 15:18:20;;;;;;;2.33;1.30;;;;;;;19.51;50.25;96636.31;9941400;29;20059;-50
2022/06/21 15:23:46;;;;;;;2.05;1.25;;;;;;;19.51;48.92;96631.69;9923573;29;20062;-49
2022/06/21 15:29:18;;;;;;;1.98;1.20;;;;;;;19.53;48.13;96624.06;9921910;29;20093;-51
2022/06/21 15:34:44;;;;;;;1.95;1.17;;;;;;;19.55;42.75;96621.81;9936827;29;20059;-50
2022/06/21 15:40:04;;;;;;;1.40;1.08;;;;;;;19.55;43.20;96611.00;9946535;29;20063;-51
2022/06/21 15:45:29;;;;;;;4.45;1.23;;;;;;;19.55;45.32;96608.31;9939200;29;20138;-52
2022/06/21 15:50:48;;;;;;;2.92;1.30;;;;;;;19.56;45.75;96598.28;9942517;29;20146;-51
2022/06/21 15:56:38;;;;;;;2.92;1.42;;;;;;;19.55;44.49;96596.72;9948743;29;20063;-52
2022/06/21 16:02:28;;;;;;;28.60;7.72;;;;;;;19.56;45.27;96609.91;9956431;29;20059;-50
2022/06/21 16:07:55;;;;;;;13.10;5.00;;;;;;;19.58;46.61;96597.97;9953164;29;20471;-52
2022/06/21 16:13:25;;;;;;;7.95;1.92;;;;;;;19.59;46.78;96586.84;9932523;29;20502;-53
2022/06/21 16:18:50;;;;;;;4.80;1.67;;;;;;;19.58;46.47;96573.66;9927283;29;20768;-53
2022/06/21 16:24:15;;;;;;;3.22;1.02;;;;;;;19.55;44.25;96573.19;9929070;29;20061;-53
2022/06/21 16:29:39;;;;;;;1.50;1.10;;;;;;;19.55;46.06;96586.69;9923108;29;20059;-53
2022/06/21 16:35:32;;;;;;;2.88;1.38;;;;;;;19.56;46.92;96582.88;9947481;29;20069;-51
2022/06/21 16:47:08;;;;;;;5.40;2.10;;;;;;;19.61;48.08;96575.69;9952213;29;20055;-53
2022/06/21 16:52:34;;;;;;;2.83;1.50;;;;;;;19.63;48.14;96581.56;9943798;29;20049;-50
2022/06/21 16:58:05;;;;;;;7.45;1.52;;;;;;;19.64;48.29;96580.44;9961023;29;20116;-53
2022/06/21 17:03:59;;;;;;;3.03;1.35;;;;;;;19.64;48.18;96588.53;9938560;29;20115;-50
2022/06/21 17:09:24;;;;;;;3.42;1.20;;;;;;;19.61;47.50;96592.69;9932316;29;20066;-52
2022/06/21 17:14:48;;;;;;;1.10;0.93;;;;;;;19.59;45.63;96592.22;9943876;29;20116;-53
2022/06/21 17:20:08;;;;;;;1.85;1.00;;;;;;;19.55;45.73;96600.19;9935668;29;20136;-50
2022/06/21 17:25:28;;;;;;;2.03;1.00;;;;;;;19.53;44.70;96609.75;9927388;29;20054;-50
2022/06/21 17:30:58;;;;;;;1.85;1.00;;;;;;;19.51;42.89;96593.09;9932581;29;20066;-52
2022/06/21 17:36:39;;;;;;;3.03;1.08;;;;;;;19.47;45.20;96584.84;9921537;29;20059;-52
2022/06/21 17:42:08;;;;;;;1.88;1.30;;;;;;;19.42;44.76;96589.66;9923975;29;20480;-54
2022/06/21 17:47:29;;;;;;;;;;;;;;;19.42;46.47;96576.94;9916099;29;20059;-53
2022/06/21 17:52:51;;;;;;;1.45;1.00;;;;;;;19.46;47.00;96585.94;9905855;29;19934;-51
2022/06/21 17:58:21;;;;;;;2.75;1.10;;;;;;;19.49;47.23;96566.41;9923217;29;20071;-51
2022/06/21 18:03:51;;;;;;;2.42;0.98;;;;;;;19.50;47.63;96569.88;9929867;29;20614;-52
2022/06/21 18:09:19;;;;;;;5.30;1.35;;;;;;;19.51;48.50;96564.16;9913994;29;20527;-50
2022/06/21 18:14:38;;;;;;;2.40;1.00;;;;;;;19.51;48.75;96569.56;9914334;29;20396;-53
2022/06/21 18:20:15;;;;;;;2.70;1.10;;;;;;;19.53;48.89;96580.03;9876873;29;20155;-49
2022/06/21 18:25:59;;;;;;;2.13;1.00;;;;;;;19.53;49.35;96588.94;9894315;29;21804;-50
2022/06/21 18:31:31;;;;;;;1.48;1.10;;;;;;;19.53;49.52;96604.38;9925484;29;20067;-52
2022/06/21 18:37:15;;;;;;;2.92;1.10;;;;;;;19.53;49.75;96620.56;9918866;29;20060;-50
2022/06/21 18:42:40;;;;;;;1.85;1.20;;;;;;;19.53;49.82;96632.16;9907403;29;20523;-52
2022/06/21 18:48:24;;;;;;;5.00;1.10;;;;;;;19.53;49.45;96624.06;9908969;29;20091;-51
2022/06/21 18:54:20;;;;;;;2.30;1.00;;;;;;;19.56;49.57;96612.59;9910296;29;20054;-50
2022/06/21 19:00:02;;;;;;;2.83;1.38;;;;;;;19.55;48.69;96611.00;9939735;29;20499;-52
2022/06/21 19:11:48;;;;;;;3.92;1.40;;;;;;;19.39;47.29;96593.81;9925162;29;20117;-52
2022/06/21 19:17:27;;;;;;;2.80;1.20;;;;;;;19.36;46.93;96602.56;9926688;29;20047;-52
2022/06/21 19:23:19;;;;;;;1.73;1.00;;;;;;;19.30;46.71;96617.38;9929011;29;20062;-50
2022/06/21 19:28:44;;;;;;;2.92;1.17;;;;;;;19.22;47.10;96642.53;9892189;29;20514;-52
2022/06/21 19:34:32;;;;;;;3.70;1.30;;;;;;;19.08;46.99;96640.81;9927963;29;20066;-51
2022/06/21 19:40:26;;;;;;;2.50;1.30;;;;;;;18.97;48.16;96623.41;9931819;29;20067;-51
2022/06/21 19:46:01;;;;;;;3.65;1.30;;;;;;;19.10;48.73;96619.69;9939820;29;20062;-52
2022/06/21 19:51:36;;;;;;;2.78;1.10;;;;;;;19.19;48.79;96633.16;9926997;29;20069;-50
2022/06/21 19:56:57;;;;;;;1.95;0.90;;;;;;;19.26;49.13;96625.31;9943005;29;20055;-51
2022/06/21 20:02:35;;;;;;;3.90;1.27;;;;;;;19.30;49.42;96601.94;9940383;29;20062;-51
2022/06/21 20:08:02;;;;;;;4.68;1.13;;;;;;;19.34;49.36;96608.28;9945800;29;20062;-49
2022/06/21 20:13:55;;;;;;;1.87;1.17;;;;;;;19.38;49.60;96599.53;9931325;29;20236;-52
2022/06/21 20:19:14;;;;;;;1.63;1.10;;;;;;;19.40;49.78;96600.00;9950312;29;20423;-53
2022/06/21 20:25:04;;;;;;;2.75;1.10;;;;;;;19.41;49.94;96586.16;9934848;29;20070;-52
2022/06/21 20:30:35;;;;;;;3.78;1.30;;;;;;;19.43;49.92;96600.13;9926227;29;20093;-52
2022/06/21 20:35:57;;;;;;;1.25;1.15;;;;;;;19.43;50.08;96589.31;9929487;29;20066;-52
2022/06/21 20:41:44;;;;;;;2.78;1.15;;;;;;;19.43;50.54;96594.72;9930641;29;20488;-50
2022/06/21 20:47:07;;;;;;;1.65;1.10;;;;;;;19.43;50.44;96588.53;9925309;29;20674;-49
2022/06/21 20:52:32;;;;;;;2.05;1.50;;;;;;;19.43;50.49;96602.84;9931999;29;20116;-52
2022/06/21 20:58:00;;;;;;;1.25;1.15;;;;;;;19.43;50.50;96583.16;9907731;29;20112;-49
2022/06/21 21:03:22;;;;;;;2.23;1.00;;;;;;;19.43;50.74;96588.53;9930351;29;20429;-51
2022/06/21 21:08:53;;;;;;;1.75;1.30;;;;;;;19.43;50.73;96580.44;9929572;29;20096;-52
2022/06/21 21:14:19;;;;;;;1.80;1.00;;;;;;;19.43;50.58;96600.13;9921135;29;20437;-51
2022/06/21 21:19:44;;;;;;;1.77;1.23;;;;;;;19.43;50.80;96599.34;9931651;29;20054;-51
2022/06/21 21:25:11;;;;;;;1.38;1.20;;;;;;;19.44;50.75;96606.31;9927292;29;20438;-51
2022/06/21 21:30:46;;;;;;;2.08;1.33;;;;;;;19.42;50.89;96603.94;9945765;29;20070;-52
2022/06/21 21:36:43;;;;;;;1.48;1.20;;;;;;;19.43;50.85;96610.94;9938730;29;20055;-50
2022/06/21 21:42:13;;;;;;;1.70;1.05;;;;;;;19.43;50.95;96610.94;9946785;29;20438;-52
2022/06/21 21:47:33;;;;;;;1.15;1.05;;;;;;;19.43;50.85;96612.84;9942022;29;20063;-52
2022/06/21 21:52:52;;;;;;;1.90;1.20;;;;;;;19.43;50.85;96619.03;9948326;29;20058;-49
2022/06/21 21:58:12;;;;;;;2.30;1.30;;;;;;;19.43;50.86;96619.03;9939088;29;20058;-51
2022/06/21 22:03:53;;;;;;;1.75;1.30;;;;;;;19.43;50.93;96620.97;9940982;29;20054;-49
2022/06/21 22:09:49;;;;;;;1.30;1.13;;;;;;;19.42;50.92;96625.56;9953164;29;20066;-52
2022/06/21 22:15:40;;;;;;;1.38;1.10;;;;;;;19.42;50.85;96622.84;9974301;29;20066;-51
2022/06/21 22:21:05;;;;;;;1.15;1.08;;;;;;;19.41;50.80;96613.19;9932132;29;20070;-51
2022/06/21 22:26:29;;;;;;;1.27;1.00;;;;;;;19.42;50.86;96620.16;9953652;29;20510;-48
2022/06/21 22:31:59;;;;;;;1.90;1.30;;;;;;;19.42;50.85;96606.66;9968485;29;20058;-52
2022/06/21 22:37:47;;;;;;;1.50;1.13;;;;;;;19.42;50.87;96611.25;9949478;29;20066;-52
2022/06/21 22:43:29;;;;;;;1.27;1.13;;;;;;;19.42;50.77;96614.75;9963404;29;20050;-49
2022/06/21 22:48:53;;;;;;;1.33;1.08;;;;;;;19.41;50.92;96618.59;9961476;29;20046;-51
2022/06/21 22:54:14;;;;;;;1.30;1.20;;;;;;;19.42;50.79;96614.75;9964207;29;20065;-51
2022/06/21 22:59:50;;;;;;;1.48;1.20;;;;;;;19.41;50.92;96623.97;9939224;29;20066;-51
2022/06/21 23:05:19;;;;;;;1.30;1.20;;;;;;;19.42;50.93;96624.78;9934897;29;20059;-49
2022/06/21 23:10:42;;;;;;;1.15;1.05;;;;;;;19.42;50.83;96616.66;9954833;29;20058;-50
2022/06/21 23:16:13;;;;;;;0.93;0.93;;;;;;;19.41;50.93;96625.91;9932820;29;20053;-50
2022/06/21 23:21:38;;;;;;;1.08;0.98;;;;;;;19.42;51.05;96633.66;9935696;29;20070;-49
2022/06/21 23:27:02;;;;;;;0.90;0.90;;;;;;;19.41;51.03;96626.69;9933305;29;20061;-49
2022/06/21 23:32:38;;;;;;;1.55;1.05;;;;;;;19.41;51.11;96612.41;9932867;29;20067;-51
2022/06/21 23:37:57;;;;;;;0.98;0.98;;;;;;;19.41;50.93;96610.47;9968387;29;20054;-51
2022/06/21 23:43:30;;;;;;;1.20;1.10;;;;;;;19.42;51.01;96603.16;9946542;29;20062;-51
2022/06/21 23:48:51;;;;;;;1.20;1.10;;;;;;;19.40;50.86;96598.06;9923667;29;20115;-52
2022/06/21 23:54:17;;;;;;;1.90;1.13;;;;;;;19.41;50.96;96602.38;9934665;29;20070;-52
2022/06/21 23:59:38;;;;;;;1.40;1.02;;;;;;;19.40;50.97;96589.97;9945951;29;20110;-49
